Time;durP1;ratioP1;P1;durP2;ratioP2;P2;SDS_P1;SDS_P2;PMS_P1;PMS_P2;Temp;Humidity;BMP_temperature;BMP_pressure;BME280_temperature;BME280_humidity;BME280_pressure;Samples;Min_cycle;Max_cycle;Signal;HPM_P1;HPM_P2
2022/08/19 00:00:31;;;;;;;0.10;0.10;;;25.00;65.30;;;;;;3911841;30;20069;-71
2022/08/19 00:02:54;;;;;;;0.00;0.00;;;25.00;66.10;;;;;;3911744;30;20114;-70
2022/08/19 00:05:16;;;;;;;0.13;0.13;;;25.00;65.30;;;;;;3911913;30;20056;-72
2022/08/19 00:07:40;;;;;;;0.25;0.25;;;25.00;65.30;;;;;;3911622;30;20424;-71
2022/08/19 00:10:02;;;;;;;0.00;0.00;;;25.00;65.40;;;;;;3912201;30;20147;-72
2022/08/19 00:12:24;;;;;;;0.88;0.88;;;25.00;65.40;;;;;;3912216;30;20069;-71
2022/08/19 00:14:46;;;;;;;0.08;0.08;;;25.00;65.30;;;;;;3911742;30;20060;-72
2022/08/19 00:17:10;;;;;;;0.15;0.15;;;25.00;65.40;;;;;;3911802;30;20057;-70
2022/08/19 00:19:32;;;;;;;0.00;0.00;;;25.00;65.40;;;;;;3912063;30;20062;-66
2022/08/19 00:21:55;;;;;;;0.00;0.00;;;25.00;65.30;;;;;;3911313;30;20430;-66
2022/08/19 00:24:19;;;;;;;0.00;0.00;;;25.00;65.30;;;;;;3898251;30;20493;-66
2022/08/19 00:26:43;;;;;;;0.00;0.00;;;25.00;65.40;;;;;;3911814;30;20080;-65
2022/08/19 00:29:06;;;;;;;0.05;0.05;;;24.90;65.30;;;;;;3912004;30;20123;-66
2022/08/19 00:31:29;;;;;;;0.00;0.00;;;25.00;65.30;;;;;;3911675;30;20072;-66
2022/08/19 00:33:50;;;;;;;0.00;0.00;;;25.00;65.30;;;;;;3912107;30;20500;-65
2022/08/19 00:36:13;;;;;;;0.00;0.00;;;25.00;66.30;;;;;;3911434;30;20060;-66
2022/08/19 00:38:36;;;;;;;0.00;0.00;;;24.90;65.30;;;;;;3898787;30;20065;-66
2022/08/19 00:41:00;;;;;;;0.00;0.00;;;25.00;65.40;;;;;;3911796;30;20106;-66
2022/08/19 00:43:25;;;;;;;0.08;0.08;;;24.90;65.30;;;;;;3912050;30;20093;-66
2022/08/19 00:45:47;;;;;;;0.10;0.10;;;24.90;65.30;;;;;;3911816;30;20052;-70
2022/08/19 00:48:09;;;;;;;0.00;0.00;;;24.90;65.30;;;;;;3911792;30;20130;-70
2022/08/19 00:50:33;;;;;;;0.00;0.00;;;24.90;65.30;;;;;;3911572;30;20114;-70
2022/08/19 00:52:56;;;;;;;0.00;0.00;;;24.90;65.30;;;;;;3883825;30;20490;-70
2022/08/19 00:55:22;;;;;;;0.00;0.00;;;24.90;65.30;;;;;;3896798;30;20562;-69
2022/08/19 00:57:50;;;;;;;0.20;0.20;;;24.90;65.30;;;;;;3897430;30;20057;-70
2022/08/19 01:00:16;;;;;;;0.22;0.22;;;24.90;65.30;;;;;;3905103;30;20821;-69
2022/08/19 01:02:38;;;;;;;0.00;0.00;;;24.90;65.30;;;;;;3911188;30;20068;-69
2022/08/19 01:05:02;;;;;;;0.00;0.00;;;24.80;65.30;;;;;;3911639;30;20519;-69
2022/08/19 01:07:24;;;;;;;0.00;0.00;;;24.80;65.30;;;;;;3912900;30;20087;-69
2022/08/19 01:09:47;;;;;;;0.00;0.00;;;24.80;65.30;;;;;;3914123;30;20059;-69
2022/08/19 01:12:09;;;;;;;0.03;0.03;;;24.80;65.30;;;;;;3913017;30;20053;-70
2022/08/19 01:14:32;;;;;;;0.10;0.10;;;24.80;65.30;;;;;;3913814;30;20057;-70
2022/08/19 01:16:56;;;;;;;0.00;0.00;;;24.80;65.40;;;;;;3913874;30;20080;-70
2022/08/19 01:19:26;;;;;;;0.00;0.00;;;24.80;65.40;;;;;;3900169;30;20109;-69
2022/08/19 01:21:56;;;;;;;0.00;0.00;;;24.80;65.40;;;;;;3899975;30;20053;-69
2022/08/19 01:24:19;;;;;;;0.00;0.00;;;24.80;65.40;;;;;;3900115;30;20060;-68
2022/08/19 01:26:44;;;;;;;0.00;0.00;;;24.80;65.50;;;;;;3900456;30;20059;-65
2022/08/19 01:29:08;;;;;;;0.00;0.00;;;24.80;65.40;;;;;;3900155;30;20053;-65
2022/08/19 01:31:31;;;;;;;0.00;0.00;;;24.80;65.50;;;;;;3912934;30;20060;-65
2022/08/19 01:33:56;;;;;;;0.10;0.10;;;24.80;65.40;;;;;;3900685;30;20079;-65
2022/08/19 01:36:27;;;;;;;0.08;0.08;;;24.80;65.40;;;;;;3914023;30;20151;-65
2022/08/19 01:38:50;;;;;;;0.00;0.00;;;24.80;65.50;;;;;;3913867;30;20138;-65
2022/08/19 01:41:13;;;;;;;0.00;0.00;;;24.80;65.50;;;;;;3913638;30;20063;-66
2022/08/19 01:43:36;;;;;;;0.00;0.00;;;24.80;65.40;;;;;;3913801;30;20428;-65
2022/08/19 01:45:58;;;;;;;0.00;0.00;;;24.70;65.40;;;;;;3913609;30;20052;-65
2022/08/19 01:48:20;;;;;;;0.00;0.00;;;24.70;65.40;;;;;;3913499;30;20057;-65
2022/08/19 01:50:43;;;;;;;0.93;0.93;;;24.70;65.40;;;;;;3912897;30;20066;-65
2022/08/19 01:53:10;;;;;;;0.13;0.13;;;24.70;66.30;;;;;;3892133;30;20063;-65
2022/08/19 01:55:32;;;;;;;0.00;0.00;;;24.70;65.40;;;;;;3913084;30;20504;-65
2022/08/19 01:58:00;;;;;;;0.00;0.00;;;24.70;65.40;;;;;;3913536;30;20056;-65
2022/08/19 02:00:25;;;;;;;0.00;0.00;;;24.70;65.40;;;;;;3913476;30;20064;-65
2022/08/19 02:02:47;;;;;;;0.00;0.00;;;24.60;65.30;;;;;;3913130;30;20064;-65
2022/08/19 02:05:10;;;;;;;0.10;0.10;;;24.70;65.40;;;;;;3912589;30;20056;-65
2022/08/19 02:07:32;;;;;;;0.00;0.00;;;24.70;66.30;;;;;;3913166;30;20554;-65
2022/08/19 02:09:54;;;;;;;1.05;0.95;;;24.60;65.30;;;;;;3913388;30;20812;-65
2022/08/19 02:12:17;;;;;;;0.20;0.20;;;24.60;65.30;;;;;;3913604;30;20083;-65
2022/08/19 02:14:40;;;;;;;1.58;1.48;;;24.60;65.30;;;;;;3912774;30;20072;-65
2022/08/19 02:17:03;;;;;;;0.00;0.00;;;24.60;65.30;;;;;;3913007;30;20048;-65
2022/08/19 02:19:25;;;;;;;0.10;0.10;;;24.60;65.30;;;;;;3913310;30;20086;-65
2022/08/19 02:21:47;;;;;;;0.00;0.00;;;24.60;65.30;;;;;;3912418;30;20107;-64
2022/08/19 02:24:09;;;;;;;0.00;0.00;;;24.60;65.30;;;;;;3912743;30;20057;-65
2022/08/19 02:26:32;;;;;;;0.00;0.00;;;24.60;65.30;;;;;;3913203;30;20421;-64
2022/08/19 02:28:56;;;;;;;0.00;0.00;;;24.60;65.30;;;;;;3913169;30;20110;-65
2022/08/19 02:31:21;;;;;;;0.10;0.10;;;24.60;65.20;;;;;;3913522;30;20057;-64
2022/08/19 02:33:43;;;;;;;0.00;0.00;;;24.60;65.20;;;;;;3913010;30;20056;-65
2022/08/19 02:36:07;;;;;;;0.00;0.00;;;24.50;65.20;;;;;;3913202;30;20067;-65
2022/08/19 02:38:28;;;;;;;0.00;0.00;;;24.50;65.20;;;;;;3912968;30;20167;-65
2022/08/19 02:40:52;;;;;;;0.00;0.00;;;24.50;65.20;;;;;;3913085;30;20151;-65
2022/08/19 02:43:14;;;;;;;0.00;0.00;;;24.50;65.20;;;;;;3912552;30;20131;-65
2022/08/19 02:45:39;;;;;;;0.00;0.00;;;24.50;65.20;;;;;;3912698;30;20114;-65
2022/08/19 02:48:05;;;;;;;0.20;0.20;;;24.50;65.30;;;;;;3885122;30;20104;-65
2022/08/19 02:50:28;;;;;;;0.05;0.05;;;24.50;65.30;;;;;;3898539;30;20573;-66
2022/08/19 02:52:50;;;;;;;0.00;0.00;;;24.50;65.30;;;;;;3911761;30;20528;-65
2022/08/19 02:55:12;;;;;;;0.00;0.00;;;24.50;65.30;;;;;;3913234;30;20052;-65
2022/08/19 02:57:35;;;;;;;0.00;0.00;;;24.50;65.30;;;;;;3912632;30;20077;-65
2022/08/19 02:59:57;;;;;;;21.73;1.63;;;24.50;65.30;;;;;;3912696;30;20052;-64
2022/08/19 03:02:19;;;;;;;0.00;0.00;;;24.50;65.30;;;;;;3912754;30;20055;-64
2022/08/19 03:04:42;;;;;;;0.45;0.45;;;24.50;65.30;;;;;;3912703;30;24547;-67
2022/08/19 03:07:04;;;;;;;0.00;0.00;;;24.50;65.40;;;;;;3912309;30;20076;-65
2022/08/19 03:09:30;;;;;;;0.00;0.00;;;24.50;65.30;;;;;;3912898;30;20141;-67
2022/08/19 03:11:52;;;;;;;0.00;0.00;;;24.50;65.30;;;;;;3912068;30;20163;-65
2022/08/19 03:14:15;;;;;;;0.00;0.00;;;24.40;65.30;;;;;;3912063;30;20079;-65
2022/08/19 03:16:44;;;;;;;0.00;0.00;;;24.40;65.30;;;;;;3912368;30;20132;-65
2022/08/19 03:19:06;;;;;;;0.00;0.00;;;24.40;65.30;;;;;;3912826;30;20056;-65
2022/08/19 03:21:32;;;;;;;0.05;0.05;;;24.40;65.30;;;;;;3912052;30;20053;-65
2022/08/19 03:23:55;;;;;;;0.32;0.32;;;24.40;65.30;;;;;;3912640;30;20080;-65
2022/08/19 03:26:17;;;;;;;0.00;0.00;;;24.40;65.30;;;;;;3912189;30;20095;-65
2022/08/19 03:28:39;;;;;;;0.00;0.00;;;24.40;65.30;;;;;;3912551;30;20397;-65
2022/08/19 03:31:04;;;;;;;0.00;0.00;;;24.40;65.30;;;;;;3912023;30;20058;-65
2022/08/19 03:33:27;;;;;;;0.00;0.00;;;24.40;65.30;;;;;;3912706;30;20072;-65
2022/08/19 03:36:01;;;;;;;0.30;0.30;;;24.40;65.40;;;;;;3912078;30;20056;-65
2022/08/19 03:38:24;;;;;;;0.90;0.55;;;24.40;65.40;;;;;;3912060;30;20107;-65
2022/08/19 03:40:46;;;;;;;0.13;0.13;;;24.40;65.40;;;;;;3912016;30;20051;-65
2022/08/19 03:43:09;;;;;;;0.00;0.00;;;24.40;65.40;;;;;;3911838;30;20148;-66
2022/08/19 03:45:30;;;;;;;0.00;0.00;;;24.40;65.40;;;;;;3912263;30;20064;-65
2022/08/19 03:47:53;;;;;;;0.00;0.00;;;24.40;65.40;;;;;;3912086;30;20110;-65
2022/08/19 03:50:15;;;;;;;0.00;0.00;;;24.30;65.40;;;;;;3911994;30;20053;-65
2022/08/19 03:52:37;;;;;;;0.00;0.00;;;24.40;65.50;;;;;;3912095;30;20184;-65
2022/08/19 03:55:00;;;;;;;0.10;0.10;;;24.30;65.40;;;;;;3898994;30;20056;-65
2022/08/19 03:57:22;;;;;;;0.00;0.00;;;24.30;65.40;;;;;;3911507;30;20072;-65
2022/08/19 03:59:52;;;;;;;0.00;0.00;;;24.30;65.40;;;;;;3912098;30;20106;-65
2022/08/19 04:02:15;;;;;;;0.10;0.10;;;24.30;65.40;;;;;;3911420;30;20053;-65
2022/08/19 04:04:38;;;;;;;0.00;0.00;;;24.30;65.40;;;;;;3911662;30;20529;-65
2022/08/19 04:07:00;;;;;;;5.75;0.75;;;24.30;65.40;;;;;;3911564;30;20064;-66
2022/08/19 04:09:22;;;;;;;0.00;0.00;;;24.30;65.40;;;;;;3911901;30;20122;-66
2022/08/19 04:11:48;;;;;;;0.00;0.00;;;24.30;66.30;;;;;;3911750;30;20060;-66
2022/08/19 04:14:12;;;;;;;0.00;0.00;;;24.20;65.40;;;;;;3911923;30;20154;-64
2022/08/19 04:16:34;;;;;;;0.55;0.55;;;24.20;65.40;;;;;;3911676;30;20079;-65
2022/08/19 04:18:58;;;;;;;1.85;0.88;;;24.20;65.40;;;;;;3911203;30;20520;-65
2022/08/19 04:21:22;;;;;;;0.08;0.08;;;24.20;65.40;;;;;;3911291;30;20075;-66
2022/08/19 04:23:44;;;;;;;0.00;0.00;;;24.20;65.50;;;;;;3912072;30;20056;-65
2022/08/19 04:26:06;;;;;;;0.88;0.88;;;24.20;65.40;;;;;;3911528;30;20071;-65
2022/08/19 04:28:31;;;;;;;0.00;0.00;;;24.20;65.40;;;;;;3911847;30;20082;-65
2022/08/19 04:30:55;;;;;;;0.00;0.00;;;24.20;65.40;;;;;;3911578;30;20075;-65
2022/08/19 04:33:24;;;;;;;0.10;0.10;;;24.20;65.40;;;;;;3910057;30;20494;-65
2022/08/19 04:35:49;;;;;;;0.00;0.00;;;24.20;65.50;;;;;;3910879;30;20053;-65
2022/08/19 04:38:12;;;;;;;0.25;0.25;;;24.10;65.30;;;;;;3911466;30;20069;-65
2022/08/19 04:43:15;;;;;;;0.00;0.00;;;24.10;65.40;;;;;;3914773;30;20139;-65
2022/08/19 04:45:39;;;;;;;0.00;0.00;;;24.10;65.40;;;;;;3913610;30;20060;-66
2022/08/19 04:48:05;;;;;;;0.00;0.00;;;24.10;65.40;;;;;;3913929;30;20505;-66
2022/08/19 04:50:43;;;;;;;0.08;0.08;;;24.20;65.40;;;;;;3914125;30;20056;-66
2022/08/19 04:53:05;;;;;;;0.00;0.00;;;24.10;65.40;;;;;;3914197;30;20510;-67
2022/08/19 04:55:27;;;;;;;0.00;0.00;;;24.10;65.40;;;;;;3901098;30;20425;-67
2022/08/19 04:57:50;;;;;;;0.00;0.00;;;24.10;65.40;;;;;;3914300;30;20085;-65
2022/08/19 05:00:13;;;;;;;12.10;2.30;;;24.10;65.60;;;;;;3913534;30;20575;-66
2022/08/19 05:02:36;;;;;;;0.13;0.13;;;24.10;65.80;;;;;;3914052;30;20056;-66
2022/08/19 05:05:00;;;;;;;0.00;0.00;;;24.10;65.70;;;;;;3914308;30;20063;-66
2022/08/19 05:07:22;;;;;;;0.00;0.00;;;24.10;65.60;;;;;;3913777;30;20075;-66
2022/08/19 05:09:44;;;;;;;0.00;0.00;;;24.10;65.60;;;;;;3914097;30;20052;-66
2022/08/19 05:12:17;;;;;;;0.10;0.10;;;24.10;65.60;;;;;;3914150;30;20056;-66
2022/08/19 05:14:39;;;;;;;0.00;0.00;;;24.10;65.70;;;;;;3913666;30;20059;-67
2022/08/19 05:17:02;;;;;;;0.10;0.10;;;24.10;65.70;;;;;;3914439;30;20086;-66
2022/08/19 05:22:35;;;;;;;;;;;24.10;65.90;;;;;;3914564;30;20152;-72
2022/08/19 05:24:57;;;;;;;0.00;0.00;;;24.10;65.90;;;;;;3898943;30;19935;-72
2022/08/19 05:27:33;;;;;;;0.00;0.00;;;24.10;65.80;;;;;;3899603;30;20494;-73
2022/08/19 05:29:55;;;;;;;0.10;0.10;;;24.10;65.80;;;;;;3899000;30;20072;-73
2022/08/19 05:32:17;;;;;;;0.00;0.00;;;24.10;65.80;;;;;;3899753;30;20079;-72
2022/08/19 05:34:39;;;;;;;0.00;0.00;;;24.10;65.80;;;;;;3913846;30;20069;-73
2022/08/19 05:37:05;;;;;;;0.00;0.00;;;24.10;65.90;;;;;;3913178;30;20836;-73
2022/08/19 05:39:29;;;;;;;0.20;0.20;;;24.10;65.90;;;;;;3912513;30;20041;-71
2022/08/19 05:41:53;;;;;;;0.25;0.25;;;24.10;65.80;;;;;;3913710;30;20481;-70
2022/08/19 05:44:17;;;;;;;0.05;0.05;;;24.10;65.90;;;;;;3913969;30;20052;-70
2022/08/19 05:46:40;;;;;;;0.00;0.00;;;24.10;65.80;;;;;;3913832;30;20070;-70
2022/08/19 05:49:02;;;;;;;0.00;0.00;;;24.10;65.80;;;;;;3913391;30;20061;-70
2022/08/19 05:51:24;;;;;;;0.00;0.00;;;24.10;65.70;;;;;;3911957;30;20064;-70
2022/08/19 05:53:51;;;;;;;0.00;0.00;;;24.10;65.90;;;;;;3898172;30;20061;-69
2022/08/19 05:56:16;;;;;;;0.00;0.00;;;24.20;66.40;;;;;;3898325;30;20130;-69
2022/08/19 05:58:40;;;;;;;0.00;0.00;;;24.20;66.30;;;;;;3899006;30;20045;-69
2022/08/19 06:01:05;;;;;;;4.28;1.33;;;24.20;66.60;;;;;;3899284;30;20056;-69
2022/08/19 06:03:27;;;;;;;2.17;2.08;;;24.20;66.80;;;;;;3902176;30;20064;-69
2022/08/19 06:05:49;;;;;;;0.00;0.00;;;24.20;66.80;;;;;;3900168;30;20072;-69
2022/08/19 06:08:13;;;;;;;0.00;0.00;;;24.20;66.90;;;;;;3912654;30;20055;-68
2022/08/19 06:10:36;;;;;;;0.00;0.00;;;24.20;66.90;;;;;;3899927;30;20059;-65
2022/08/19 06:12:58;;;;;;;0.00;0.00;;;24.20;66.90;;;;;;3912837;30;20057;-68
2022/08/19 06:15:21;;;;;;;0.00;0.00;;;24.10;66.80;;;;;;3904453;30;20102;-69
2022/08/19 06:17:45;;;;;;;0.00;0.00;;;24.10;67.00;;;;;;3900037;30;20083;-69
2022/08/19 06:20:13;;;;;;;0.00;0.00;;;24.10;67.00;;;;;;3913372;30;20067;-69
2022/08/19 06:22:39;;;;;;;0.50;0.50;;;24.10;67.00;;;;;;3913411;30;21553;-68
2022/08/19 06:25:01;;;;;;;0.00;0.00;;;24.10;67.00;;;;;;3912844;30;20192;-68
2022/08/19 06:27:24;;;;;;;0.20;0.20;;;24.10;67.00;;;;;;3912585;30;20444;-68
2022/08/19 06:29:47;;;;;;;0.10;0.10;;;24.10;67.00;;;;;;3899141;30;20057;-69
2022/08/19 06:32:09;;;;;;;2.85;1.15;;;24.10;67.00;;;;;;3899409;30;20433;-70
2022/08/19 06:34:32;;;;;;;0.17;0.17;;;24.10;67.00;;;;;;3912717;30;20087;-70
2022/08/19 06:36:55;;;;;;;0.75;0.75;;;24.10;67.10;;;;;;3911141;30;20060;-70
2022/08/19 06:39:20;;;;;;;0.00;0.00;;;24.10;67.10;;;;;;3906185;30;20517;-66
2022/08/19 06:41:45;;;;;;;0.00;0.00;;;24.10;67.10;;;;;;3889910;30;20085;-65
2022/08/19 06:44:14;;;;;;;0.15;0.15;;;24.20;67.40;;;;;;3898134;30;20064;-64
2022/08/19 06:46:44;;;;;;;0.00;0.00;;;24.20;67.40;;;;;;3899029;30;20072;-65
2022/08/19 06:49:10;;;;;;;0.00;0.00;;;24.20;67.40;;;;;;3911849;30;20600;-65
2022/08/19 06:51:32;;;;;;;0.70;0.70;;;24.20;67.50;;;;;;3889887;30;20073;-65
2022/08/19 06:54:01;;;;;;;0.00;0.00;;;24.20;67.50;;;;;;3858008;30;20058;-65
2022/08/19 06:56:30;;;;;;;0.20;0.20;;;24.20;67.40;;;;;;3861397;30;20061;-66
2022/08/19 06:58:53;;;;;;;0.00;0.00;;;24.30;67.50;;;;;;3910145;30;20040;-66
2022/08/19 07:01:16;;;;;;;0.65;0.38;;;24.30;67.50;;;;;;3912488;30;20087;-66
2022/08/19 07:03:39;;;;;;;0.00;0.00;;;24.30;67.50;;;;;;3912225;30;20049;-65
2022/08/19 07:06:05;;;;;;;0.00;0.00;;;24.40;67.50;;;;;;3912739;30;20064;-66
2022/08/19 07:08:58;;;;;;;0.35;0.35;;;24.40;67.50;;;;;;3912537;30;21092;-65
2022/08/19 07:11:21;;;;;;;0.10;0.10;;;24.50;67.40;;;;;;3908941;30;20576;-64
2022/08/19 07:13:44;;;;;;;0.00;0.00;;;24.50;67.40;;;;;;3910541;30;20079;-65
2022/08/19 07:16:08;;;;;;;0.30;0.30;;;24.50;67.40;;;;;;3908977;30;20060;-65
2022/08/19 07:18:32;;;;;;;0.00;0.00;;;24.60;67.60;;;;;;3911448;30;20053;-65
2022/08/19 07:21:03;;;;;;;0.35;0.35;;;24.60;67.40;;;;;;3910875;30;20155;-64
2022/08/19 07:23:26;;;;;;;0.00;0.00;;;24.60;68.20;;;;;;3912010;30;20063;-64
2022/08/19 07:25:48;;;;;;;0.20;0.20;;;24.70;67.30;;;;;;3908918;30;20417;-72
2022/08/19 07:28:13;;;;;;;0.20;0.20;;;24.70;67.30;;;;;;3910331;30;20114;-68
2022/08/19 07:30:45;;;;;;;0.00;0.00;;;24.80;67.40;;;;;;3891254;30;20445;-70
2022/08/19 07:33:07;;;;;;;0.20;0.20;;;24.80;67.40;;;;;;3912123;30;20481;-70
2022/08/19 07:35:31;;;;;;;0.15;0.15;;;24.80;67.40;;;;;;3912128;30;20068;-70
2022/08/19 07:37:53;;;;;;;0.10;0.10;;;24.80;67.40;;;;;;3899050;30;20091;-70
2022/08/19 07:40:16;;;;;;;0.28;0.28;;;24.80;67.40;;;;;;3911500;30;20067;-69
2022/08/19 07:42:39;;;;;;;0.10;0.10;;;24.90;67.60;;;;;;3898310;30;20075;-70
2022/08/19 07:45:01;;;;;;;1.45;0.60;;;24.90;67.60;;;;;;3911955;30;20397;-70
2022/08/19 07:47:23;;;;;;;0.47;0.47;;;24.90;67.60;;;;;;3911870;30;20144;-70
2022/08/19 07:50:08;;;;;;;0.00;0.00;;;24.90;67.80;;;;;;3912500;30;20059;-69
2022/08/19 07:52:32;;;;;;;0.00;0.00;;;25.00;67.80;;;;;;3912110;30;20073;-70
2022/08/19 07:54:54;;;;;;;0.00;0.00;;;25.00;67.80;;;;;;3912078;30;20114;-70
2022/08/19 07:57:16;;;;;;;0.28;0.28;;;25.00;67.80;;;;;;3911807;30;20148;-69
2022/08/19 07:59:38;;;;;;;0.00;0.00;;;25.00;67.90;;;;;;3912488;30;20053;-70
2022/08/19 08:02:01;;;;;;;0.43;0.43;;;25.00;67.90;;;;;;3912401;30;20138;-70
2022/08/19 08:09:45;;;;;;;6.60;1.17;;;25.10;68.10;;;;;;3912020;30;20094;-70
2022/08/19 08:12:14;;;;;;;0.00;0.00;;;25.10;68.10;;;;;;3912128;30;20053;-70
2022/08/19 08:14:55;;;;;;;0.10;0.10;;;25.10;68.10;;;;;;3912224;30;20047;-70
2022/08/19 08:17:20;;;;;;;0.65;0.65;;;25.10;68.10;;;;;;3914710;30;20064;-70
2022/08/19 08:19:53;;;;;;;0.05;0.05;;;25.10;68.10;;;;;;3914667;30;20056;-70
2022/08/19 08:24:57;;;;;;;3.40;0.63;;;25.20;68.20;;;;;;3914693;30;20058;-69
2022/08/19 08:27:20;;;;;;;0.00;0.00;;;25.20;68.10;;;;;;3914359;30;20127;-70
2022/08/19 08:29:44;;;;;;;0.00;0.00;;;25.20;68.10;;;;;;3909659;30;20052;-69
2022/08/19 08:32:07;;;;;;;0.10;0.10;;;25.30;68.20;;;;;;3914774;30;20080;-69
2022/08/19 08:34:36;;;;;;;0.00;0.00;;;25.30;68.20;;;;;;3915032;30;20564;-70
2022/08/19 08:36:58;;;;;;;0.00;0.00;;;25.30;68.20;;;;;;3914496;30;20427;-70
2022/08/19 08:39:22;;;;;;;0.00;0.00;;;25.30;68.30;;;;;;3915409;30;20497;-70
2022/08/19 08:41:53;;;;;;;0.10;0.10;;;25.30;68.30;;;;;;3900223;30;20053;-65
2022/08/19 08:44:19;;;;;;;0.00;0.00;;;25.30;68.40;;;;;;3900044;30;20127;-65
2022/08/19 08:46:46;;;;;;;0.00;0.00;;;25.30;68.30;;;;;;3886724;30;20156;-64
2022/08/19 08:49:30;;;;;;;0.00;0.00;;;25.40;68.40;;;;;;3907127;30;20083;-64
2022/08/19 08:51:59;;;;;;;0.10;0.10;;;25.40;68.30;;;;;;3914220;30;20440;-64
2022/08/19 08:54:25;;;;;;;0.20;0.20;;;25.40;68.40;;;;;;3914027;30;20142;-64
2022/08/19 08:56:52;;;;;;;0.08;0.08;;;25.40;68.40;;;;;;3914311;30;20080;-64
2022/08/19 08:59:21;;;;;;;0.00;0.00;;;25.40;68.40;;;;;;3914417;30;20489;-64
2022/08/19 09:01:44;;;;;;;1.02;1.02;;;25.40;68.30;;;;;;3914127;30;20058;-64
2022/08/19 09:04:07;;;;;;;0.05;0.05;;;25.50;68.20;;;;;;3914588;30;20494;-64
2022/08/19 09:06:37;;;;;;;0.85;0.85;;;25.50;68.00;;;;;;3914002;30;20040;-64
2022/08/19 09:09:06;;;;;;;0.00;0.00;;;25.50;68.60;;;;;;3913587;30;20481;-64
2022/08/19 09:11:56;;;;;;;0.73;0.73;;;25.50;67.60;;;;;;3913979;30;20064;-64
2022/08/19 09:14:37;;;;;;;0.57;0.57;;;25.50;67.90;;;;;;3914458;30;20052;-64
2022/08/19 09:17:15;;;;;;;0.00;0.00;;;25.60;68.10;;;;;;3913767;30;20060;-64
2022/08/19 09:19:50;;;;;;;0.00;0.00;;;25.60;68.30;;;;;;3914147;30;20044;-64
2022/08/19 09:22:12;;;;;;;0.10;0.10;;;25.60;68.20;;;;;;3914139;30;20060;-64
2022/08/19 09:24:35;;;;;;;0.00;0.00;;;25.60;68.40;;;;;;3913952;30;20060;-64
2022/08/19 09:26:59;;;;;;;0.00;0.00;;;25.70;68.50;;;;;;3888055;30;20160;-64
2022/08/19 09:29:21;;;;;;;0.10;0.10;;;25.70;68.80;;;;;;3913608;30;20060;-64
2022/08/19 09:31:43;;;;;;;0.68;0.15;;;25.70;69.40;;;;;;3912629;30;20416;-64
2022/08/19 09:34:05;;;;;;;1.23;1.08;;;25.80;69.20;;;;;;3913812;30;20064;-69
2022/08/19 09:36:32;;;;;;;1.95;1.15;;;25.80;68.60;;;;;;3913963;30;20145;-70
2022/08/19 09:38:56;;;;;;;1.25;1.15;;;25.80;68.70;;;;;;3913755;30;20078;-71
2022/08/19 09:41:21;;;;;;;0.00;0.00;;;25.80;69.00;;;;;;3914268;30;20063;-72
2022/08/19 09:43:47;;;;;;;0.38;0.38;;;25.90;68.60;;;;;;3913875;30;20079;-64
2022/08/19 09:46:09;;;;;;;0.00;0.00;;;25.90;67.70;;;;;;3914110;30;20126;-64
2022/08/19 09:48:32;;;;;;;0.13;0.13;;;25.90;66.90;;;;;;3913477;30;20060;-64
2022/08/19 09:50:54;;;;;;;0.10;0.10;;;25.90;66.50;;;;;;3913778;30;20056;-64
2022/08/19 09:53:16;;;;;;;0.00;0.00;;;25.90;66.50;;;;;;3913612;30;20060;-64
2022/08/19 09:55:42;;;;;;;0.00;0.00;;;25.90;66.30;;;;;;3913772;30;20058;-64
2022/08/19 09:58:05;;;;;;;0.00;0.00;;;25.90;66.10;;;;;;3900240;30;20064;-64
2022/08/19 10:00:28;;;;;;;0.00;0.00;;;26.00;65.90;;;;;;3913475;30;20065;-63
2022/08/19 10:02:50;;;;;;;0.00;0.00;;;26.00;65.40;;;;;;3913529;30;20064;-65
2022/08/19 10:07:54;;;;;;;0.35;0.35;;;26.10;65.30;;;;;;3913561;30;20052;-64
2022/08/19 10:10:18;;;;;;;1.13;0.60;;;26.10;64.90;;;;;;3913402;30;20084;-64
2022/08/19 10:12:40;;;;;;;0.00;0.00;;;26.10;64.50;;;;;;3913721;30;20068;-63
2022/08/19 10:15:03;;;;;;;0.10;0.10;;;26.20;64.30;;;;;;3912939;30;20549;-65
2022/08/19 10:17:26;;;;;;;0.05;0.05;;;26.20;64.10;;;;;;3913627;30;20060;-63
2022/08/19 10:19:52;;;;;;;0.00;0.00;;;26.20;63.90;;;;;;3913201;30;20586;-64
2022/08/19 10:22:18;;;;;;;0.10;0.10;;;26.20;63.70;;;;;;3912654;30;21199;-64
2022/08/19 10:24:41;;;;;;;0.00;0.00;;;26.20;63.50;;;;;;3912867;30;20394;-65
2022/08/19 10:27:05;;;;;;;0.00;0.00;;;26.30;63.70;;;;;;3899954;30;20053;-64
2022/08/19 10:29:28;;;;;;;0.00;0.00;;;26.30;63.60;;;;;;3912412;30;20123;-64
2022/08/19 10:31:53;;;;;;;0.20;0.20;;;26.30;63.50;;;;;;3912857;30;20068;-64
2022/08/19 10:34:21;;;;;;;0.15;0.15;;;26.30;63.40;;;;;;3912360;30;20444;-63
2022/08/19 10:36:49;;;;;;;0.00;0.00;;;26.30;63.30;;;;;;3910954;30;20140;-64
2022/08/19 10:39:13;;;;;;;0.00;0.00;;;26.40;64.30;;;;;;3898876;30;20065;-64
2022/08/19 10:41:37;;;;;;;0.00;0.00;;;26.40;64.20;;;;;;3914839;30;20060;-64
2022/08/19 10:44:01;;;;;;;0.68;0.20;;;26.40;63.20;;;;;;3924777;30;20091;-65
2022/08/19 10:46:27;;;;;;;0.30;0.30;;;26.40;63.10;;;;;;3921641;30;20059;-65
2022/08/19 10:48:50;;;;;;;0.10;0.10;;;26.40;63.10;;;;;;3911324;30;20052;-65
2022/08/19 10:53:53;;;;;;;;;;;26.50;63.00;;;;;;3911363;30;20075;-65
2022/08/19 10:58:56;;;;;;;0.00;0.00;;;26.50;62.80;;;;;;3910791;30;20130;-65
2022/08/19 11:01:19;;;;;;;0.00;0.00;;;26.60;62.80;;;;;;3910658;30;20114;-65
2022/08/19 11:03:41;;;;;;;0.10;0.10;;;26.60;62.70;;;;;;3910934;30;20113;-65
2022/08/19 11:06:13;;;;;;;0.00;0.00;;;26.60;62.70;;;;;;3910686;30;20355;-65
2022/08/19 11:08:37;;;;;;;0.20;0.20;;;26.60;62.70;;;;;;3910595;30;20490;-65
2022/08/19 11:11:02;;;;;;;0.00;0.00;;;26.60;62.70;;;;;;3913987;30;20555;-65
2022/08/19 11:13:24;;;;;;;0.32;0.32;;;26.60;63.50;;;;;;3896373;30;20056;-65
2022/08/19 11:15:47;;;;;;;0.00;0.00;;;26.70;62.60;;;;;;3910126;30;20143;-65
2022/08/19 11:18:09;;;;;;;0.00;0.00;;;26.70;62.50;;;;;;3910568;30;20077;-65
2022/08/19 11:20:34;;;;;;;0.00;0.00;;;26.70;62.50;;;;;;3921856;30;20067;-65
2022/08/19 11:22:57;;;;;;;0.00;0.00;;;26.70;62.40;;;;;;3924413;30;20056;-65
2022/08/19 11:25:20;;;;;;;0.00;0.00;;;26.70;62.90;;;;;;3924564;30;20056;-65
2022/08/19 11:27:44;;;;;;;0.00;0.00;;;26.70;63.10;;;;;;3885656;30;20159;-64
2022/08/19 11:30:08;;;;;;;0.08;0.08;;;26.70;64.00;;;;;;3917231;30;20056;-64
2022/08/19 11:32:32;;;;;;;0.00;0.00;;;26.70;63.10;;;;;;3914873;30;20063;-64
2022/08/19 11:34:54;;;;;;;0.00;0.00;;;26.70;63.10;;;;;;3920167;30;20061;-66
2022/08/19 11:37:16;;;;;;;0.25;0.25;;;26.70;63.30;;;;;;3923637;30;20055;-71
2022/08/19 11:39:40;;;;;;;10.55;2.00;;;26.70;64.40;;;;;;3903600;30;20075;-73
2022/08/19 11:42:02;;;;;;;0.00;0.00;;;26.80;65.30;;;;;;3905206;30;20057;-71
2022/08/19 11:44:25;;;;;;;0.10;0.10;;;26.80;65.00;;;;;;3910894;30;20064;-72
2022/08/19 11:46:47;;;;;;;0.10;0.10;;;26.80;64.50;;;;;;3911816;30;20063;-73
2022/08/19 11:49:09;;;;;;;0.00;0.00;;;26.80;64.20;;;;;;3910397;30;20417;-72
2022/08/19 11:51:35;;;;;;;0.10;0.10;;;26.80;64.00;;;;;;3908746;30;20053;-71
2022/08/19 11:53:59;;;;;;;0.20;0.20;;;26.80;63.80;;;;;;3910011;30;20064;-72
2022/08/19 11:56:23;;;;;;;0.10;0.10;;;26.80;63.60;;;;;;3899774;30;20064;-72
2022/08/19 11:58:46;;;;;;;0.00;0.00;;;26.80;63.50;;;;;;3909921;30;20167;-72
2022/08/19 12:01:10;;;;;;;0.00;0.00;;;26.80;63.40;;;;;;3911841;30;20088;-72
2022/08/19 12:03:33;;;;;;;0.00;0.00;;;26.80;63.30;;;;;;3902739;30;20114;-73
2022/08/19 12:05:56;;;;;;;0.85;0.85;;;26.80;63.20;;;;;;3921244;30;20082;-70
2022/08/19 12:08:19;;;;;;;3.17;0.57;;;26.80;63.10;;;;;;3923951;30;20103;-73
2022/08/19 12:10:42;;;;;;;0.00;0.00;;;26.80;63.00;;;;;;3918895;30;20072;-66
2022/08/19 12:13:06;;;;;;;0.00;0.00;;;26.90;63.00;;;;;;3901328;30;20060;-65
2022/08/19 12:15:29;;;;;;;4.18;1.10;;;26.90;62.80;;;;;;3909975;30;20171;-66
2022/08/19 12:17:51;;;;;;;0.40;0.35;;;26.90;62.70;;;;;;3918249;30;20056;-75
2022/08/19 12:20:16;;;;;;;0.00;0.00;;;26.90;62.70;;;;;;3911375;30;20060;-72
2022/08/19 12:22:40;;;;;;;0.00;0.00;;;26.90;62.60;;;;;;3911832;30;20056;-73
2022/08/19 12:25:02;;;;;;;0.08;0.08;;;26.90;62.60;;;;;;3911301;30;20128;-72
2022/08/19 12:27:24;;;;;;;0.17;0.17;;;26.90;62.50;;;;;;3912022;30;20122;-73
2022/08/19 12:29:54;;;;;;;0.00;0.00;;;26.90;62.50;;;;;;3898260;30;20068;-73
2022/08/19 12:32:16;;;;;;;0.00;0.00;;;27.00;62.50;;;;;;3912010;30;20066;-72
2022/08/19 12:34:39;;;;;;;0.00;0.00;;;27.00;62.40;;;;;;3911064;30;20056;-74
2022/08/19 12:37:04;;;;;;;2.58;0.57;;;27.00;62.30;;;;;;3911968;30;20139;-75
2022/08/19 12:39:26;;;;;;;0.00;0.00;;;27.00;62.30;;;;;;3911323;30;20147;-73
2022/08/19 12:41:48;;;;;;;0.40;0.40;;;27.00;62.20;;;;;;3898198;30;20045;-73
2022/08/19 12:44:14;;;;;;;0.10;0.10;;;27.00;62.30;;;;;;3911446;30;20401;-72
2022/08/19 12:46:38;;;;;;;0.00;0.00;;;27.00;62.20;;;;;;3911850;30;20072;-73
2022/08/19 12:48:59;;;;;;;0.00;0.00;;;27.00;62.30;;;;;;3911873;30;20414;-73
2022/08/19 12:51:22;;;;;;;0.00;0.00;;;26.90;62.20;;;;;;3911831;30;20135;-73
2022/08/19 12:53:45;;;;;;;0.65;0.65;;;26.90;63.20;;;;;;3911628;30;20405;-72